createdAt,value
2022-09-21T00:00:56.589Z,1.52
2022-09-21T00:03:01.184Z,1.77
2022-09-21T00:05:06.665Z,2.10
2022-09-21T00:07:11.049Z,1.83
2022-09-21T00:09:15.397Z,1.75
2022-09-21T00:11:22.148Z,2.60
2022-09-21T00:13:28.424Z,1.80
2022-09-21T00:15:34.474Z,1.80
2022-09-21T00:17:39.425Z,1.60
2022-09-21T00:19:43.567Z,1.77
2022-09-21T00:21:47.771Z,1.90
2022-09-21T00:23:52.258Z,1.73
2022-09-21T00:26:06.525Z,2.00
2022-09-21T00:28:10.834Z,1.58
2022-09-21T00:30:15.485Z,2.45
2022-09-21T00:32:21.416Z,2.10
2022-09-21T00:34:26.021Z,2.20
2022-09-21T00:36:30.743Z,2.20
2022-09-21T00:38:35.782Z,1.77
2022-09-21T00:40:39.968Z,2.10
2022-09-21T00:42:44.611Z,2.15
2022-09-21T00:44:49.232Z,2.28
2022-09-21T00:46:56.860Z,2.22
2022-09-21T00:49:03.360Z,1.92
2022-09-21T00:51:09.446Z,1.90
2022-09-21T00:53:13.996Z,1.77
2022-09-21T00:55:24.205Z,1.95
2022-09-21T00:59:38.670Z,1.90
2022-09-21T01:01:43.172Z,2.35
2022-09-21T01:03:47.982Z,1.80
2022-09-21T01:05:53.885Z,2.15
2022-09-21T01:08:02.085Z,2.35
2022-09-21T01:10:10.403Z,2.50
2022-09-21T01:12:28.511Z,2.72
2022-09-21T01:14:47.431Z,2.78
2022-09-21T01:17:03.581Z,2.35
2022-09-21T01:19:35.131Z,2.40
2022-09-21T01:21:51.909Z,2.60
2022-09-21T01:24:21.406Z,2.20
2022-09-21T01:26:43.979Z,2.72
2022-09-21T01:29:17.825Z,2.40
2022-09-21T01:31:28.112Z,2.83
2022-09-21T01:33:38.086Z,2.83
2022-09-21T01:35:47.668Z,3.03
2022-09-21T01:37:57.802Z,2.30
2022-09-21T01:40:06.510Z,2.47
2022-09-21T01:42:12.103Z,2.47
2022-09-21T01:44:22.176Z,2.80
2022-09-21T01:46:31.895Z,2.75
2022-09-21T01:48:41.239Z,3.50
2022-09-21T01:50:49.593Z,3.23
2022-09-21T01:52:59.829Z,2.95
2022-09-21T01:55:09.379Z,2.67
2022-09-21T01:57:20.445Z,2.70
2022-09-21T01:59:34.492Z,2.58
2022-09-21T02:01:44.652Z,2.88
2022-09-21T02:03:52.631Z,3.00
2022-09-21T02:05:58.644Z,2.42
2022-09-21T02:08:03.321Z,2.67
2022-09-21T02:10:11.076Z,2.92
2022-09-21T02:12:18.903Z,2.88
2022-09-21T02:14:27.676Z,3.17
2022-09-21T02:16:39.791Z,2.40
2022-09-21T02:18:57.915Z,2.72
2022-09-21T02:21:04.741Z,2.90
2022-09-21T02:23:17.008Z,2.63
2022-09-21T02:25:29.354Z,2.58
2022-09-21T02:27:39.694Z,3.28
2022-09-21T02:29:50.945Z,2.97
2022-09-21T02:32:00.877Z,2.92
2022-09-21T02:34:18.177Z,2.10
2022-09-21T02:36:30.033Z,2.65
2022-09-21T02:38:37.047Z,3.00
2022-09-21T02:40:45.775Z,3.00
2022-09-21T02:42:53.973Z,2.58
2022-09-21T02:45:06.337Z,2.58
2022-09-21T02:47:16.082Z,2.83
2022-09-21T02:49:23.495Z,2.92
2022-09-21T02:51:32.277Z,2.92
2022-09-21T02:53:38.835Z,2.92
2022-09-21T02:55:45.425Z,2.75
2022-09-21T02:57:51.104Z,2.75
2022-09-21T02:59:55.516Z,2.75
2022-09-21T03:02:02.646Z,3.08
2022-09-21T03:04:06.949Z,3.08
2022-09-21T03:06:11.394Z,3.45
2022-09-21T03:08:15.891Z,3.17
2022-09-21T03:10:20.869Z,3.53
2022-09-21T03:12:26.401Z,2.85
2022-09-21T03:14:31.440Z,3.17
2022-09-21T03:16:35.766Z,2.80
2022-09-21T03:18:43.239Z,2.78
2022-09-21T03:20:47.532Z,3.05
2022-09-21T03:22:51.690Z,3.45
2022-09-21T03:24:57.635Z,3.20
2022-09-21T03:27:01.858Z,2.95
2022-09-21T03:29:06.224Z,2.70
2022-09-21T03:31:10.475Z,3.30
2022-09-21T03:33:14.713Z,3.25
2022-09-21T03:35:21.678Z,3.30
2022-09-21T03:37:25.813Z,3.08
2022-09-21T03:39:29.987Z,3.65
2022-09-21T03:41:35.018Z,3.38
2022-09-21T03:43:39.148Z,3.40
2022-09-21T03:45:44.117Z,3.30
2022-09-21T03:47:48.229Z,3.35
2022-09-21T03:49:52.667Z,3.10
2022-09-21T03:51:58.472Z,3.58
2022-09-21T03:54:03.017Z,3.38
2022-09-21T03:56:07.369Z,3.70
2022-09-21T03:58:11.768Z,4.10
2022-09-21T04:00:17.567Z,3.22
2022-09-21T04:02:22.657Z,4.07
2022-09-21T04:04:26.985Z,3.85
2022-09-21T04:06:31.382Z,3.88
2022-09-21T04:08:37.264Z,4.45
2022-09-21T04:10:42.843Z,4.15
2022-09-21T04:12:47.795Z,3.83
2022-09-21T04:14:52.143Z,3.92
2022-09-21T04:16:56.961Z,4.05
2022-09-21T04:19:01.693Z,4.00
2022-09-21T04:21:06.523Z,3.90
2022-09-21T04:23:10.935Z,3.78
2022-09-21T04:25:17.044Z,3.58
2022-09-21T04:27:21.420Z,3.58
2022-09-21T04:29:25.596Z,3.70
2022-09-21T04:31:31.092Z,3.53
2022-09-21T04:33:35.433Z,3.83
2022-09-21T04:35:39.872Z,4.32
2022-09-21T04:37:44.693Z,3.88
2022-09-21T04:39:48.855Z,4.60
2022-09-21T04:41:54.591Z,4.70
2022-09-21T04:43:59.953Z,4.40
2022-09-21T04:46:08.560Z,4.00
2022-09-21T04:48:12.812Z,4.30
2022-09-21T04:50:17.383Z,4.55
2022-09-21T04:52:21.679Z,5.22
2022-09-21T04:54:25.960Z,3.92
2022-09-21T04:56:30.427Z,3.67
2022-09-21T04:58:36.867Z,3.80
2022-09-21T05:00:41.101Z,4.20
2022-09-21T05:02:45.339Z,3.72
2022-09-21T05:04:51.129Z,3.97
2022-09-21T05:06:55.574Z,3.60
2022-09-21T05:09:13.886Z,4.13
2022-09-21T05:11:19.746Z,3.63
2022-09-21T05:13:23.969Z,3.75
2022-09-21T05:15:30.058Z,3.58
2022-09-21T05:17:36.575Z,3.50
2022-09-21T05:19:40.827Z,3.67
2022-09-21T05:21:45.131Z,3.83
2022-09-21T05:23:49.312Z,3.58
2022-09-21T05:25:53.702Z,3.97
2022-09-21T05:27:57.997Z,3.80
2022-09-21T05:30:02.897Z,3.97
2022-09-21T05:32:18.967Z,4.95
2022-09-21T05:34:36.951Z,3.85
2022-09-21T05:36:50.040Z,3.97
2022-09-21T05:38:55.173Z,4.13
2022-09-21T05:41:00.131Z,5.07
2022-09-21T05:43:07.507Z,4.35
2022-09-21T05:45:16.496Z,4.55
2022-09-21T05:47:27.639Z,5.22
2022-09-21T05:49:45.961Z,5.53
2022-09-21T05:52:03.959Z,4.97
2022-09-21T05:54:16.845Z,5.13
2022-09-21T05:56:33.979Z,5.07
2022-09-21T05:58:47.458Z,5.50
2022-09-21T06:01:04.164Z,4.90
2022-09-21T06:03:29.059Z,4.47
2022-09-21T06:05:33.673Z,4.53
2022-09-21T06:07:37.946Z,4.72
2022-09-21T06:09:43.363Z,4.50
2022-09-21T06:11:47.771Z,4.45
2022-09-21T06:13:52.074Z,5.13
2022-09-21T06:15:56.495Z,5.15
2022-09-21T06:18:00.688Z,4.80
2022-09-21T06:20:08.278Z,4.50
2022-09-21T06:22:12.427Z,4.97
2022-09-21T06:24:19.480Z,4.13
2022-09-21T06:26:23.657Z,3.67
2022-09-21T06:28:28.216Z,5.03
2022-09-21T06:30:33.412Z,3.65
2022-09-21T06:32:37.635Z,4.03
2022-09-21T06:34:42.996Z,4.53
2022-09-21T06:36:48.562Z,3.83
2022-09-21T06:38:52.702Z,3.17
2022-09-21T06:40:57.255Z,3.88
2022-09-21T06:43:04.181Z,3.08
2022-09-21T06:45:10.540Z,3.47
2022-09-21T06:47:15.014Z,2.97
2022-09-21T06:49:19.303Z,2.90
2022-09-21T06:51:24.324Z,3.13
2022-09-21T06:53:31.777Z,3.20
2022-09-21T06:55:35.965Z,3.50
2022-09-21T06:57:40.403Z,2.50
2022-09-21T06:59:44.592Z,3.03
2022-09-21T07:01:48.922Z,4.15
2022-09-21T07:03:54.122Z,2.58
2022-09-21T07:05:58.493Z,2.83
2022-09-21T07:08:03.435Z,2.83
2022-09-21T07:10:14.322Z,2.88
2022-09-21T07:12:18.882Z,4.50
2022-09-21T07:14:26.370Z,2.80
2022-09-21T07:16:31.199Z,2.65
2022-09-21T07:18:43.402Z,2.90
2022-09-21T07:20:49.728Z,1.80
2022-09-21T07:22:53.978Z,1.70
2022-09-21T07:24:58.198Z,1.80
2022-09-21T07:27:03.832Z,1.30
2022-09-21T07:29:08.227Z,1.50
2022-09-21T07:31:15.159Z,2.00
2022-09-21T07:33:19.444Z,1.95
2022-09-21T07:35:23.791Z,1.90
2022-09-21T07:37:28.676Z,2.17
2022-09-21T07:39:33.089Z,2.05
2022-09-21T07:41:37.737Z,1.83
2022-09-21T07:43:43.695Z,2.20
2022-09-21T07:45:55.561Z,1.92
2022-09-21T07:48:04.397Z,2.03
2022-09-21T07:50:09.779Z,2.00
2022-09-21T07:52:15.266Z,2.17
2022-09-21T07:54:19.718Z,2.22
2022-09-21T07:56:24.147Z,1.77
2022-09-21T07:58:45.675Z,2.28
2022-09-21T08:00:51.305Z,1.42
2022-09-21T08:02:55.543Z,2.17
2022-09-21T08:04:59.725Z,1.40
2022-09-21T08:07:03.957Z,2.05
2022-09-21T08:09:08.722Z,1.58
2022-09-21T08:11:13.034Z,2.13
2022-09-21T08:13:17.247Z,2.72
2022-09-21T08:15:44.392Z,2.65
2022-09-21T08:17:47.134Z,1.90
2022-09-21T08:19:51.334Z,1.90
2022-09-21T08:21:57.821Z,1.63
2022-09-21T08:24:02.693Z,1.52
2022-09-21T08:26:08.019Z,1.40
2022-09-21T08:28:12.238Z,1.58
2022-09-21T08:30:16.540Z,2.17
2022-09-21T08:32:49.329Z,1.65
2022-09-21T08:34:51.202Z,1.83
2022-09-21T08:36:56.011Z,1.80
2022-09-21T08:39:00.902Z,1.80
2022-09-21T08:41:16.614Z,1.92
2022-09-21T08:43:32.058Z,1.63
2022-09-21T08:45:41.195Z,1.92
2022-09-21T08:47:49.319Z,1.40
2022-09-21T08:49:59.940Z,1.52
2022-09-21T08:52:08.396Z,1.80
2022-09-21T08:54:20.700Z,1.70
2022-09-21T08:56:41.890Z,1.33
2022-09-21T08:58:51.782Z,2.45
2022-09-21T09:01:22.309Z,1.50
2022-09-21T09:04:05.877Z,1.60
2022-09-21T09:06:26.519Z,1.60
2022-09-21T09:08:56.383Z,1.17
2022-09-21T09:11:11.783Z,1.98
2022-09-21T09:13:44.501Z,1.50
2022-09-21T09:16:03.819Z,1.55
2022-09-21T09:18:13.436Z,1.23
2022-09-21T09:20:23.901Z,1.10
2022-09-21T09:22:36.540Z,1.55
2022-09-21T09:24:44.800Z,1.40
2022-09-21T09:26:54.052Z,1.20
2022-09-21T09:29:02.128Z,1.25
2022-09-21T09:31:19.763Z,1.30
2022-09-21T09:33:27.952Z,1.15
2022-09-21T09:35:37.409Z,1.15
2022-09-21T09:37:44.315Z,8.82
2022-09-21T09:39:55.419Z,1.25
2022-09-21T09:42:35.087Z,1.10
2022-09-21T09:45:04.903Z,1.08
2022-09-21T09:49:33.046Z,1.50
2022-09-21T09:51:40.038Z,1.13
2022-09-21T09:53:46.674Z,1.05
2022-09-21T09:55:52.675Z,0.95
2022-09-21T09:57:59.166Z,1.02
2022-09-21T10:00:09.700Z,0.95
2022-09-21T10:02:24.784Z,1.10
2022-09-21T10:04:29.493Z,1.05
2022-09-21T10:06:34.173Z,1.20
2022-09-21T10:08:46.629Z,1.20
2022-09-21T10:10:51.379Z,1.05
2022-09-21T10:12:56.561Z,1.10
2022-09-21T10:15:01.632Z,1.45
2022-09-21T10:17:09.190Z,1.70
2022-09-21T10:19:18.636Z,0.90
2022-09-21T10:21:25.881Z,1.30
2022-09-21T10:23:31.116Z,2.55
2022-09-21T10:25:40.178Z,1.00
2022-09-21T10:27:48.544Z,0.90
2022-09-21T10:29:52.893Z,0.90
2022-09-21T10:31:58.283Z,1.08
2022-09-21T10:34:16.061Z,0.90
2022-09-21T10:36:38.941Z,0.70
2022-09-21T10:38:43.199Z,0.80
2022-09-21T10:40:49.793Z,1.00
2022-09-21T10:42:56.223Z,0.90
2022-09-21T10:45:08.633Z,0.80
2022-09-21T10:47:24.214Z,0.80
2022-09-21T10:49:30.536Z,0.70
2022-09-21T10:51:34.919Z,1.08
2022-09-21T10:53:39.242Z,0.82
2022-09-21T10:56:04.849Z,1.05
2022-09-21T10:58:15.681Z,0.73
2022-09-21T11:00:35.549Z,1.10
2022-09-21T11:02:43.148Z,1.00
2022-09-21T11:04:50.900Z,1.08
2022-09-21T11:06:59.721Z,0.90
2022-09-21T11:09:08.196Z,0.90
2022-09-21T11:11:31.364Z,0.82
2022-09-21T11:13:42.307Z,0.80
2022-09-21T11:15:53.033Z,1.35
2022-09-21T11:18:11.705Z,1.08
2022-09-21T11:20:24.908Z,0.80
2022-09-21T11:22:36.100Z,1.00
2022-09-21T11:24:48.480Z,1.00
2022-09-21T11:26:59.264Z,1.10
2022-09-21T11:29:13.615Z,0.80
2022-09-21T11:31:53.042Z,1.00
2022-09-21T11:34:33.497Z,0.93
2022-09-21T11:36:55.898Z,1.00
2022-09-21T11:39:07.816Z,1.00
2022-09-21T11:41:46.019Z,1.27
2022-09-21T11:44:14.890Z,1.38
2022-09-21T11:46:26.468Z,1.15
2022-09-21T11:48:56.342Z,1.15
2022-09-21T11:53:43.449Z,0.88
2022-09-21T11:56:05.325Z,1.08
2022-09-21T11:58:16.785Z,1.15
2022-09-21T12:00:25.138Z,1.38
2022-09-21T12:02:52.342Z,2.35
2022-09-21T12:05:03.626Z,2.03
2022-09-21T12:07:21.943Z,1.65
2022-09-21T12:09:49.570Z,1.73
2022-09-21T12:12:05.211Z,1.90
2022-09-21T12:14:22.291Z,2.70
2022-09-21T12:16:37.630Z,1.88
2022-09-21T12:18:48.381Z,2.03
2022-09-21T12:21:00.171Z,1.75
2022-09-21T12:23:09.179Z,2.85
2022-09-21T12:25:20.053Z,2.13
2022-09-21T12:27:30.777Z,1.90
2022-09-21T12:29:43.481Z,1.60
2022-09-21T12:31:56.901Z,1.35
2022-09-21T12:34:06.353Z,1.70
2022-09-21T12:36:17.328Z,2.80
2022-09-21T12:38:28.528Z,2.50
2022-09-21T12:40:39.451Z,1.73
2022-09-21T12:42:47.925Z,1.60
2022-09-21T12:44:57.248Z,1.20
2022-09-21T12:47:10.339Z,1.70
2022-09-21T12:49:20.042Z,1.15
2022-09-21T12:51:29.697Z,1.33
2022-09-21T12:53:37.837Z,1.23
2022-09-21T12:55:50.111Z,1.15
2022-09-21T12:58:18.317Z,1.05
2022-09-21T13:00:24.651Z,1.20
2022-09-21T13:02:36.458Z,2.30
2022-09-21T13:04:58.859Z,1.70
2022-09-21T13:07:35.084Z,1.42
2022-09-21T13:09:43.271Z,1.25
2022-09-21T13:11:56.784Z,1.05
2022-09-21T13:14:04.062Z,1.52
2022-09-21T13:16:23.286Z,1.67
2022-09-21T13:18:36.307Z,2.25
2022-09-21T13:20:42.384Z,1.25
2022-09-21T13:22:49.068Z,1.40
2022-09-21T13:25:06.335Z,1.40
2022-09-21T13:27:11.032Z,0.98
2022-09-21T13:29:40.164Z,1.30
2022-09-21T13:31:58.129Z,3.70
2022-09-21T13:34:23.289Z,1.60
2022-09-21T13:36:36.397Z,1.30
2022-09-21T13:39:15.311Z,1.02
2022-09-21T13:41:45.453Z,1.15
2022-09-21T13:44:05.101Z,1.10
2022-09-21T13:46:10.343Z,0.75
2022-09-21T13:48:27.792Z,0.93
2022-09-21T13:50:42.771Z,1.00
2022-09-21T13:52:52.116Z,1.05
2022-09-21T13:54:59.741Z,1.10
2022-09-21T13:57:19.925Z,1.10
2022-09-21T13:59:27.966Z,1.10
2022-09-21T14:01:46.617Z,1.00
2022-09-21T14:03:54.693Z,0.90
2022-09-21T14:06:07.643Z,1.05
2022-09-21T14:08:31.407Z,1.13
2022-09-21T14:10:38.879Z,1.02
2022-09-21T14:12:45.572Z,1.27
2022-09-21T14:15:25.232Z,1.15
2022-09-21T14:17:38.263Z,1.10
2022-09-21T14:20:30.264Z,1.00
2022-09-21T14:22:44.344Z,1.17
2022-09-21T14:24:51.456Z,1.60
2022-09-21T14:27:07.216Z,1.05
2022-09-21T14:29:21.033Z,1.10
2022-09-21T14:31:30.485Z,1.02
2022-09-21T14:33:44.278Z,1.17
2022-09-21T14:35:49.298Z,1.48
2022-09-21T14:37:58.852Z,1.10
2022-09-21T14:40:07.209Z,0.88
2022-09-21T14:42:19.617Z,1.80
2022-09-21T14:44:27.825Z,1.00
2022-09-21T14:46:53.895Z,1.10
2022-09-21T14:49:12.357Z,1.20
2022-09-21T14:51:24.106Z,1.33
2022-09-21T14:53:56.068Z,1.00
2022-09-21T14:56:22.973Z,1.20
2022-09-21T14:58:44.237Z,1.38
2022-09-21T15:00:50.346Z,1.10
2022-09-21T15:03:11.203Z,1.40
2022-09-21T15:05:27.318Z,1.60
2022-09-21T15:07:53.857Z,1.30
2022-09-21T15:10:43.444Z,1.45
2022-09-21T15:12:55.215Z,2.10
2022-09-21T15:15:07.276Z,1.50
2022-09-21T15:17:25.559Z,1.83
2022-09-21T15:19:30.281Z,1.33
2022-09-21T15:21:35.730Z,1.67
2022-09-21T15:23:41.263Z,1.38
2022-09-21T15:25:58.701Z,1.25
2022-09-21T15:28:04.887Z,1.10
2022-09-21T15:30:21.379Z,1.63
2022-09-21T15:32:34.173Z,1.40
2022-09-21T15:34:38.488Z,1.23
2022-09-21T15:36:44.656Z,1.17
2022-09-21T15:38:50.558Z,1.40
2022-09-21T15:41:01.429Z,1.42
2022-09-21T15:43:20.977Z,1.38
2022-09-21T15:45:28.518Z,1.63
2022-09-21T15:47:34.172Z,1.38
2022-09-21T15:49:38.883Z,2.28
2022-09-21T15:51:46.086Z,2.90
2022-09-21T15:53:54.105Z,2.30
2022-09-21T15:56:01.889Z,2.40
2022-09-21T15:58:22.432Z,2.60
2022-09-21T16:00:28.636Z,2.83
2022-09-21T16:02:38.703Z,4.50
2022-09-21T16:04:49.408Z,7.50
2022-09-21T16:07:04.776Z,6.40
2022-09-21T16:09:39.188Z,4.93
2022-09-21T16:11:45.352Z,4.32
2022-09-21T16:14:07.776Z,5.18
2022-09-21T16:16:13.884Z,5.35
2022-09-21T16:18:35.941Z,4.65
2022-09-21T16:20:44.036Z,4.10
2022-09-21T16:22:50.246Z,4.32
2022-09-21T16:24:56.600Z,3.63
2022-09-21T16:27:04.410Z,2.75
2022-09-21T16:29:20.793Z,2.92
2022-09-21T16:31:31.697Z,2.05
2022-09-21T16:33:42.407Z,1.90
2022-09-21T16:35:47.147Z,1.73
2022-09-21T16:37:58.343Z,2.05
2022-09-21T16:40:03.300Z,1.77
2022-09-21T16:42:12.071Z,1.88
2022-09-21T16:44:22.911Z,1.73
2022-09-21T16:46:28.944Z,1.88
2022-09-21T16:48:33.165Z,1.45
2022-09-21T16:50:38.290Z,1.65
2022-09-21T16:52:52.510Z,1.75
2022-09-21T16:54:58.777Z,1.60
2022-09-21T16:57:06.150Z,2.38
2022-09-21T16:59:21.821Z,3.67
2022-09-21T17:01:27.621Z,6.50
2022-09-21T17:03:34.840Z,5.40
2022-09-21T17:05:39.184Z,4.70
2022-09-21T17:07:43.395Z,2.95
2022-09-21T17:09:48.687Z,2.85
2022-09-21T17:11:54.598Z,2.63
2022-09-21T17:14:01.455Z,3.10
2022-09-21T17:16:08.158Z,2.90
2022-09-21T17:18:13.648Z,3.25
2022-09-21T17:20:24.455Z,3.00
2022-09-21T17:22:29.327Z,3.65
2022-09-21T17:24:49.934Z,3.30
2022-09-21T17:26:55.574Z,4.05
2022-09-21T17:28:59.882Z,2.85
2022-09-21T17:31:09.442Z,3.63
2022-09-21T17:33:13.723Z,3.05
2022-09-21T17:35:21.739Z,2.75
2022-09-21T17:37:26.930Z,3.08
2022-09-21T17:39:31.140Z,2.72
2022-09-21T17:41:41.822Z,2.63
2022-09-21T17:44:04.407Z,2.55
2022-09-21T17:46:17.730Z,2.90
2022-09-21T17:48:23.657Z,3.47
2022-09-21T17:50:29.473Z,2.97
2022-09-21T17:52:51.524Z,4.80
2022-09-21T17:54:56.570Z,3.10
2022-09-21T17:57:09.379Z,5.30
2022-09-21T17:59:26.545Z,4.80
2022-09-21T18:01:35.139Z,3.58
2022-09-21T18:03:41.882Z,4.03
2022-09-21T18:05:51.005Z,4.07
2022-09-21T18:07:55.874Z,4.10
2022-09-21T18:10:00.730Z,4.00
2022-09-21T18:12:39.441Z,3.78
2022-09-21T18:14:53.527Z,3.80
2022-09-21T18:17:09.948Z,3.70
2022-09-21T18:19:31.094Z,3.78
2022-09-21T18:21:40.845Z,2.85
2022-09-21T18:24:06.151Z,2.90
2022-09-21T18:26:16.617Z,2.63
2022-09-21T18:28:28.676Z,3.40
2022-09-21T18:30:36.203Z,2.97
2022-09-21T18:32:58.750Z,2.90
2022-09-21T18:35:31.158Z,2.95
2022-09-21T18:37:46.342Z,3.30
2022-09-21T18:40:02.641Z,2.97
2022-09-21T18:42:23.973Z,2.88
2022-09-21T18:44:36.025Z,2.65
2022-09-21T18:46:51.476Z,2.45
2022-09-21T18:49:03.550Z,2.95
2022-09-21T18:51:16.549Z,2.28
2022-09-21T18:53:28.180Z,2.88
2022-09-21T18:55:33.655Z,2.70
2022-09-21T18:57:38.431Z,3.15
2022-09-21T18:59:43.342Z,3.40
2022-09-21T19:01:50.757Z,3.40
2022-09-21T19:03:55.450Z,3.45
2022-09-21T19:06:26.809Z,3.25
2022-09-21T19:08:37.728Z,4.22
2022-09-21T19:10:49.377Z,3.50
2022-09-21T19:13:10.298Z,4.13
2022-09-21T19:15:42.249Z,3.33
2022-09-21T19:18:03.968Z,3.15
2022-09-21T19:20:32.150Z,3.95
2022-09-21T19:22:46.299Z,3.45
2022-09-21T19:25:00.731Z,3.22
2022-09-21T19:27:23.622Z,2.65
2022-09-21T19:29:39.934Z,2.80
2022-09-21T19:31:44.386Z,3.03
2022-09-21T19:33:51.062Z,2.70
2022-09-21T19:35:57.147Z,2.83
2022-09-21T19:38:05.120Z,3.47
2022-09-21T19:40:10.767Z,4.28
2022-09-21T19:42:29.838Z,2.70
2022-09-21T19:44:46.316Z,2.80
2022-09-21T19:47:01.073Z,2.97
2022-09-21T19:49:13.759Z,2.90
2022-09-21T19:51:28.972Z,3.00
2022-09-21T19:53:55.777Z,2.80
2022-09-21T19:56:21.762Z,2.92
2022-09-21T19:58:43.953Z,2.95
2022-09-21T20:00:53.581Z,3.40
2022-09-21T20:03:05.862Z,2.65
2022-09-21T20:05:15.469Z,3.15
2022-09-21T20:07:25.947Z,3.33
2022-09-21T20:09:40.004Z,2.72
2022-09-21T20:11:51.676Z,3.80
2022-09-21T20:14:08.455Z,3.40
2022-09-21T20:16:31.594Z,3.13
2022-09-21T20:18:43.301Z,2.97
2022-09-21T20:20:47.914Z,3.20
2022-09-21T20:22:52.780Z,3.05
2022-09-21T20:25:03.157Z,2.85
2022-09-21T20:27:27.022Z,3.40
2022-09-21T20:29:31.560Z,3.33
2022-09-21T20:31:36.313Z,3.13
2022-09-21T20:33:40.416Z,3.22
2022-09-21T20:35:45.075Z,3.08
2022-09-21T20:37:50.621Z,3.08
2022-09-21T20:39:55.702Z,3.08
2022-09-21T20:42:01.422Z,2.97
2022-09-21T20:44:05.738Z,2.83
2022-09-21T20:46:11.782Z,2.92
2022-09-21T20:48:16.128Z,3.00
2022-09-21T20:50:21.141Z,3.35
2022-09-21T20:52:25.513Z,3.30
2022-09-21T20:54:29.578Z,2.97
2022-09-21T20:56:34.210Z,3.20
2022-09-21T20:58:41.556Z,3.42
2022-09-21T21:00:46.192Z,3.40
2022-09-21T21:02:51.026Z,2.88
2022-09-21T21:04:55.238Z,2.92
2022-09-21T21:06:59.346Z,3.17
2022-09-21T21:09:03.708Z,3.40
2022-09-21T21:11:07.857Z,3.10
2022-09-21T21:13:12.030Z,3.15
2022-09-21T21:15:17.793Z,3.53
2022-09-21T21:17:22.011Z,3.22
2022-09-21T21:19:26.141Z,2.90
2022-09-21T21:21:30.395Z,3.17
2022-09-21T21:23:54.627Z,2.92
2022-09-21T21:26:05.378Z,3.13
2022-09-21T21:28:09.921Z,2.78
2022-09-21T21:30:15.195Z,2.80
2022-09-21T21:32:23.179Z,3.10
2022-09-21T21:34:27.491Z,3.10
2022-09-21T21:36:31.746Z,3.10
2022-09-21T21:38:38.375Z,3.10
2022-09-21T21:40:42.457Z,3.33
2022-09-21T21:42:47.210Z,3.00
2022-09-21T21:44:51.616Z,3.75
2022-09-21T21:47:02.849Z,3.15
2022-09-21T21:49:21.262Z,3.85
2022-09-21T21:51:25.387Z,3.97
2022-09-21T21:53:30.601Z,3.17
2022-09-21T21:55:34.673Z,3.22
2022-09-21T21:57:38.819Z,3.20
2022-09-21T21:59:43.614Z,3.10
2022-09-21T22:01:48.057Z,3.30
2022-09-21T22:03:55.357Z,3.33
2022-09-21T22:06:05.205Z,3.25
2022-09-21T22:08:14.413Z,3.55
2022-09-21T22:10:18.926Z,3.10
2022-09-21T22:12:23.253Z,3.53
2022-09-21T22:14:28.344Z,2.95
2022-09-21T22:16:34.896Z,2.88
2022-09-21T22:18:39.873Z,3.20
2022-09-21T22:20:44.714Z,3.50
2022-09-21T22:22:50.267Z,3.38
2022-09-21T22:24:54.491Z,3.03
2022-09-21T22:26:58.569Z,3.08
2022-09-21T22:29:04.863Z,3.10
2022-09-21T22:31:11.555Z,3.40
2022-09-21T22:33:15.778Z,3.20
2022-09-21T22:35:21.703Z,3.53
2022-09-21T22:37:25.899Z,3.05
2022-09-21T22:39:32.324Z,3.72
2022-09-21T22:41:38.500Z,3.55
2022-09-21T22:43:42.882Z,3.25
2022-09-21T22:45:47.094Z,2.95
2022-09-21T22:47:51.268Z,3.70
2022-09-21T22:49:56.399Z,3.17
2022-09-21T22:52:00.490Z,3.90
2022-09-21T22:54:04.825Z,3.35
2022-09-21T22:56:12.287Z,3.25
2022-09-21T22:58:16.660Z,2.80
2022-09-21T23:00:20.974Z,3.47
2022-09-21T23:02:25.329Z,2.95
2022-09-21T23:04:29.770Z,3.38
2022-09-21T23:06:36.040Z,3.60
2022-09-21T23:08:40.570Z,3.10
2022-09-21T23:10:44.886Z,3.50
2022-09-21T23:12:51.801Z,3.30
2022-09-21T23:14:55.973Z,3.10
2022-09-21T23:17:00.125Z,3.10
2022-09-21T23:19:04.729Z,3.03
2022-09-21T23:21:11.551Z,3.55
2022-09-21T23:23:15.685Z,3.10
2022-09-21T23:25:19.844Z,3.40
2022-09-21T23:27:24.542Z,3.55
2022-09-21T23:29:30.101Z,3.35
2022-09-21T23:31:35.570Z,3.42
2022-09-21T23:33:41.262Z,3.30
2022-09-21T23:35:45.456Z,3.20
2022-09-21T23:37:49.849Z,3.22
2022-09-21T23:39:54.198Z,3.60
2022-09-21T23:41:58.769Z,2.88
2022-09-21T23:44:04.151Z,3.40
2022-09-21T23:46:11.409Z,3.58
2022-09-21T23:48:15.648Z,3.22
2022-09-21T23:50:19.902Z,2.88
2022-09-21T23:52:24.296Z,2.80
2022-09-21T23:54:29.132Z,3.05
2022-09-21T23:56:34.024Z,3.42
2022-09-21T23:58:38.135Z,3.45
